Time;durP1;ratioP1;P1;durP2;ratioP2;P2;SDS_P1;SDS_P2;PMS_P1;PMS_P2;Temp;Humidity;BMP_temperature;BMP_pressure;BME280_temperature;BME280_humidity;BME280_pressure;Samples;Min_cycle;Max_cycle;Signal;HPM_P1;HPM_P2
2023/02/05 00:00:03;;;;;;;;;;;;;;;20.70;44.24;103492.25;5049264;28;2796;-63
2023/02/05 00:02:31;;;;;;;;;;;;;;;20.70;44.27;103492.25;5051612;28;2773;-64
2023/02/05 00:04:57;;;;;;;;;;;;;;;20.70;44.03;103495.16;5051004;28;2991;-63
2023/02/05 00:07:23;;;;;;;;;;;;;;;20.67;44.10;103488.44;5040064;28;3517;-63
2023/02/05 00:09:50;;;;;;;;;;;;;;;20.66;44.18;103486.16;5053988;28;2882;-63
2023/02/05 00:12:16;;;;;;;;;;;;;;;20.65;44.05;103476.00;5051770;28;2614;-63
2023/02/05 00:14:42;;;;;;;;;;;;;;;20.64;44.18;103488.88;5050536;28;2960;-63
2023/02/05 00:17:09;;;;;;;;;;;;;;;20.63;44.53;103475.81;5050822;28;2815;-63
2023/02/05 00:19:35;;;;;;;;;;;;;;;20.64;44.29;103483.88;5053067;28;2899;-63
2023/02/05 00:22:01;;;;;;;;;;;;;;;20.66;44.35;103486.16;5054147;28;2400;-63
2023/02/05 00:24:28;;;;;;;;;;;;;;;20.67;44.39;103476.19;5046336;28;2846;-63
2023/02/05 00:26:54;;;;;;;;;;;;;;;20.68;44.24;103471.94;5051570;28;2919;-63
2023/02/05 00:29:20;;;;;;;;;;;;;;;20.68;44.16;103469.06;5048465;28;3056;-64
2023/02/05 00:31:48;;;;;;;;;;;;;;;20.72;44.16;103472.28;5048787;28;2818;-64
2023/02/05 00:34:15;;;;;;;;;;;;;;;20.74;44.39;103469.59;5056146;28;2640;-63
2023/02/05 00:36:41;;;;;;;;;;;;;;;20.75;44.23;103484.75;5058192;28;2788;-63
2023/02/05 00:39:12;;;;;;;;;;;;;;;20.77;44.16;103484.91;5048414;28;2837;-63
2023/02/05 00:41:39;;;;;;;;;;;;;;;20.73;44.38;103490.31;5052746;28;2578;-63
2023/02/05 00:44:05;;;;;;;;;;;;;;;20.71;44.46;103488.06;5047653;28;2982;-63
2023/02/05 00:46:31;;;;;;;;;;;;;;;20.69;44.34;103482.13;5048083;28;2825;-63
2023/02/05 00:48:58;;;;;;;;;;;;;;;20.68;44.33;103471.94;5051246;28;2855;-63
2023/02/05 00:51:24;;;;;;;;;;;;;;;20.67;44.46;103470.41;5046161;28;2833;-63
2023/02/05 00:53:50;;;;;;;;;;;;;;;20.65;44.17;103470.25;5056028;28;2416;-63
2023/02/05 00:56:17;;;;;;;;;;;;;;;20.64;44.11;103471.59;5049354;28;2812;-63
2023/02/05 00:58:46;;;;;;;;;;;;;;;20.65;44.36;103478.88;5053258;28;2933;-63
2023/02/05 01:01:13;;;;;;;;;;;;;;;20.65;44.42;103473.13;5049940;28;2916;-63
2023/02/05 01:03:39;;;;;;;;;;;;;;;20.65;44.21;103485.38;5052900;28;3013;-63
2023/02/05 01:06:06;;;;;;;;;;;;;;;20.66;44.00;103480.38;5061787;28;2746;-63
2023/02/05 01:08:32;;;;;;;;;;;;;;;20.65;44.02;103473.13;5055431;28;2891;-63
2023/02/05 01:10:59;;;;;;;;;;;;;;;20.64;44.12;103457.19;5049603;28;2855;-63
2023/02/05 01:13:25;;;;;;;;;;;;;;;20.63;44.12;103465.06;5054893;28;2931;-63
2023/02/05 01:15:52;;;;;;;;;;;;;;;20.63;44.15;103467.19;5067787;28;2778;-63
2023/02/05 01:18:19;;;;;;;;;;;;;;;20.61;44.10;103456.25;5053558;28;2791;-63
2023/02/05 01:20:45;;;;;;;;;;;;;;;20.62;43.95;103448.38;5052044;28;2876;-63
2023/02/05 01:23:11;;;;;;;;;;;;;;;20.59;43.95;103435.16;5047522;28;2886;-63
2023/02/05 01:25:38;;;;;;;;;;;;;;;20.60;44.26;103442.44;5051086;28;2809;-63
2023/02/05 01:28:05;;;;;;;;;;;;;;;20.62;43.95;103443.38;5049390;28;2931;-63
2023/02/05 01:30:32;;;;;;;;;;;;;;;20.61;44.09;103436.09;5053475;28;1634;-63
2023/02/05 01:32:58;;;;;;;;;;;;;;;20.64;44.13;103439.94;5050745;28;2701;-63
2023/02/05 01:35:24;;;;;;;;;;;;;;;20.62;44.23;103428.22;5056712;28;1995;-64
2023/02/05 01:37:51;;;;;;;;;;;;;;;20.63;44.14;103429.75;5057629;28;2915;-63
2023/02/05 01:40:17;;;;;;;;;;;;;;;20.65;43.98;103427.03;5052317;28;2794;-63
2023/02/05 01:42:44;;;;;;;;;;;;;;;20.62;44.06;103420.34;5053854;28;2754;-63
2023/02/05 01:45:22;;;;;;;;;;;;;;;20.63;44.14;103429.75;5047655;28;2828;-63
2023/02/05 01:47:55;;;;;;;;;;;;;;;20.62;43.92;103426.09;5053606;28;2634;-63
2023/02/05 01:50:23;;;;;;;;;;;;;;;20.59;44.02;103418.66;5054000;28;2819;-63
2023/02/05 01:52:50;;;;;;;;;;;;;;;20.60;44.11;103413.66;5054625;28;3035;-64
2023/02/05 01:55:16;;;;;;;;;;;;;;;20.60;43.91;103408.66;5039767;28;3122;-63
2023/02/05 01:57:42;;;;;;;;;;;;;;;20.61;43.89;103409.41;5051596;28;2903;-63
2023/02/05 02:00:09;;;;;;;;;;;;;;;20.59;43.85;103407.16;5063745;28;2841;-63
2023/02/05 02:02:41;;;;;;;;;;;;;;;20.59;43.98;103395.63;5058805;28;1669;-63
2023/02/05 02:05:09;;;;;;;;;;;;;;;20.60;44.17;103402.16;5053287;28;3216;-63
2023/02/05 02:07:35;;;;;;;;;;;;;;;20.59;44.34;103398.50;5056562;28;2915;-63
2023/02/05 02:10:02;;;;;;;;;;;;;;;20.60;43.98;103393.50;5056995;28;2784;-63
2023/02/05 02:12:29;;;;;;;;;;;;;;;20.60;44.10;103384.88;5055030;28;2886;-63
2023/02/05 02:14:56;;;;;;;;;;;;;;;20.60;43.99;103382.00;5056080;28;3126;-64
2023/02/05 02:17:23;;;;;;;;;;;;;;;20.59;43.73;103377.56;5039028;28;2801;-63
2023/02/05 02:19:51;;;;;;;;;;;;;;;20.58;43.92;103370.28;5050477;28;2942;-63
2023/02/05 02:22:18;;;;;;;;;;;;;;;20.56;43.88;103362.25;5030549;28;2909;-63
2023/02/05 02:24:47;;;;;;;;;;;;;;;20.57;43.77;103368.75;5051046;28;2864;-63
2023/02/05 02:27:28;;;;;;;;;;;;;;;20.57;43.74;103369.53;5049622;28;2909;-63
2023/02/05 02:30:15;;;;;;;;;;;;;;;20.56;43.88;103362.25;5049386;28;2569;-63
2023/02/05 02:32:45;;;;;;;;;;;;;;;20.56;43.89;103349.94;5034562;28;2734;-63
2023/02/05 02:35:14;;;;;;;;;;;;;;;20.57;43.96;103346.50;5053415;28;2840;-63
2023/02/05 02:37:44;;;;;;;;;;;;;;;20.59;43.81;103337.25;5059167;28;2824;-63
2023/02/05 02:40:19;;;;;;;;;;;;;;;20.59;43.94;103325.75;5054631;28;2800;-63
2023/02/05 02:42:48;;;;;;;;;;;;;;;20.58;43.97;103335.75;5035273;28;2823;-63
2023/02/05 02:45:14;;;;;;;;;;;;;;;20.58;43.89;103341.50;5049097;28;3059;-63
2023/02/05 02:47:41;;;;;;;;;;;;;;;20.57;43.87;103339.97;5040582;28;2791;-63
2023/02/05 02:50:09;;;;;;;;;;;;;;;20.57;43.84;103345.72;5046673;28;2991;-63
2023/02/05 02:52:36;;;;;;;;;;;;;;;20.57;43.78;103342.84;5048713;28;2829;-63
2023/02/05 02:55:05;;;;;;;;;;;;;;;20.55;43.68;103351.28;5030335;28;2926;-63
2023/02/05 02:57:32;;;;;;;;;;;;;;;20.55;43.59;103354.16;5035948;28;2714;-63
2023/02/05 02:59:58;;;;;;;;;;;;;;;20.55;43.66;103348.41;5052494;28;2956;-63
2023/02/05 03:02:25;;;;;;;;;;;;;;;20.54;43.89;103350.53;5043852;28;3384;-63
2023/02/05 03:04:54;;;;;;;;;;;;;;;20.55;43.75;103345.53;5043273;28;2762;-63
2023/02/05 03:07:23;;;;;;;;;;;;;;;20.51;43.85;103355.34;5034256;28;2964;-64
2023/02/05 03:09:53;;;;;;;;;;;;;;;20.53;44.05;103354.00;5051848;28;2827;-63
2023/02/05 03:12:20;;;;;;;;;;;;;;;20.53;43.68;103351.13;5059937;28;2831;-63
2023/02/05 03:14:47;;;;;;;;;;;;;;;20.51;43.79;103352.47;5049440;28;2732;-63
2023/02/05 03:17:17;;;;;;;;;;;;;;;20.50;43.64;103347.28;5045725;28;2957;-63
2023/02/05 03:19:46;;;;;;;;;;;;;;;20.49;43.67;103352.28;5034330;28;3235;-63
2023/02/05 03:22:13;;;;;;;;;;;;;;;20.45;43.74;103351.94;5032278;28;2791;-63
2023/02/05 03:24:39;;;;;;;;;;;;;;;20.46;43.77;103347.72;5055178;28;2870;-63
2023/02/05 03:34:58;;;;;;;;;;;;;;;20.45;43.80;103340.41;5036357;28;3138;-63
2023/02/05 03:37:30;;;;;;;;;;;;;;;20.44;44.08;103336.03;5049777;28;2879;-63
2023/02/05 03:40:04;;;;;;;;;;;;;;;20.48;43.86;103341.38;5050840;28;2926;-63
2023/02/05 03:42:36;;;;;;;;;;;;;;;20.49;43.78;103337.13;5040271;28;2880;-63
2023/02/05 03:45:21;;;;;;;;;;;;;;;20.51;43.87;103329.44;5029747;28;3046;-63
2023/02/05 03:47:58;;;;;;;;;;;;;;;20.55;43.59;103343.44;5054860;28;2926;-63
2023/02/05 03:50:47;;;;;;;;;;;;;;;20.56;43.71;103338.44;5058162;28;2867;-63
2023/02/05 03:53:32;;;;;;;;;;;;;;;20.56;43.70;103338.44;5035667;28;3041;-64
2023/02/05 03:56:09;;;;;;;;;;;;;;;20.58;43.67;103350.16;5043669;28;2839;-63
2023/02/05 03:58:37;;;;;;;;;;;;;;;20.57;43.68;103357.25;5042770;28;2909;-63
2023/02/05 04:01:05;;;;;;;;;;;;;;;20.57;43.59;103357.25;5035385;28;2837;-63
2023/02/05 04:03:32;;;;;;;;;;;;;;;20.58;43.63;103355.91;5053380;28;2801;-63
2023/02/05 04:05:59;;;;;;;;;;;;;;;20.57;43.61;103345.72;5069172;28;2961;-63
2023/02/05 04:08:25;;;;;;;;;;;;;;;20.57;43.50;103345.72;5053108;28;2720;-63
2023/02/05 04:10:52;;;;;;;;;;;;;;;20.57;43.56;103339.97;5068518;28;2905;-63
2023/02/05 04:13:19;;;;;;;;;;;;;;;20.56;43.53;103355.69;5058781;28;2787;-63
2023/02/05 04:15:47;;;;;;;;;;;;;;;20.56;43.57;103353.59;5053194;28;2951;-63
2023/02/05 04:18:14;;;;;;;;;;;;;;;20.53;43.42;103351.88;5035812;28;2817;-63
2023/02/05 04:20:42;;;;;;;;;;;;;;;20.51;43.65;103358.22;5054816;28;2627;-63
2023/02/05 04:23:09;;;;;;;;;;;;;;;20.53;43.45;103356.88;5057120;28;2945;-63
2023/02/05 04:25:37;;;;;;;;;;;;;;;20.53;43.36;103348.25;5054151;28;3268;-63
2023/02/05 04:28:05;;;;;;;;;;;;;;;20.53;43.31;103351.88;5052402;28;2975;-63
2023/02/05 04:30:32;;;;;;;;;;;;;;;20.51;43.48;103346.72;5051749;28;2663;-63
2023/02/05 04:32:59;;;;;;;;;;;;;;;20.50;43.37;103345.19;5053793;28;1661;-63
2023/02/05 04:35:25;;;;;;;;;;;;;;;20.50;43.48;103350.16;5049486;28;2741;-63
2023/02/05 04:37:52;;;;;;;;;;;;;;;20.49;43.36;103349.41;5055541;28;3093;-63
2023/02/05 04:40:18;;;;;;;;;;;;;;;20.49;43.39;103358.03;5048973;28;2715;-63
2023/02/05 04:42:45;;;;;;;;;;;;;;;20.49;43.66;103352.28;5055802;28;1709;-63
2023/02/05 04:45:11;;;;;;;;;;;;;;;20.50;43.51;103355.94;5049508;28;2878;-63
2023/02/05 04:47:37;;;;;;;;;;;;;;;20.51;43.58;103352.47;5047530;28;3024;-63
2023/02/05 04:50:04;;;;;;;;;;;;;;;20.54;43.39;103349.75;5053711;28;3233;-63
2023/02/05 04:52:30;;;;;;;;;;;;;;;20.54;43.62;103346.88;5050117;28;1747;-63
2023/02/05 04:54:56;;;;;;;;;;;;;;;20.53;43.50;103343.25;5055493;28;2979;-62
2023/02/05 04:57:23;;;;;;;;;;;;;;;20.58;43.46;103338.63;5051316;28;2843;-63
2023/02/05 04:59:49;;;;;;;;;;;;;;;20.57;43.47;103337.09;5054281;28;3365;-63
2023/02/05 05:02:15;;;;;;;;;;;;;;;20.58;43.35;103333.63;5048116;28;2478;-63
2023/02/05 05:04:42;;;;;;;;;;;;;;;20.58;43.28;103342.25;5051474;28;2860;-63
2023/02/05 05:07:09;;;;;;;;;;;;;;;20.56;43.44;103338.44;5054789;28;2974;-63
2023/02/05 05:09:35;;;;;;;;;;;;;;;20.57;43.52;103323.47;5056222;28;3185;-63
2023/02/05 05:12:01;;;;;;;;;;;;;;;20.59;43.44;103323.66;5060237;28;2470;-63
2023/02/05 05:14:28;;;;;;;;;;;;;;;20.56;43.54;103332.66;5053495;28;2809;-63
2023/02/05 05:16:54;;;;;;;;;;;;;;;20.55;43.58;103339.75;5052854;28;2888;-63
2023/02/05 05:19:20;;;;;;;;;;;;;;;20.56;43.50;103336.34;5054371;28;2459;-63
2023/02/05 05:21:47;;;;;;;;;;;;;;;20.55;43.37;103336.88;5059776;28;3085;-63
2023/02/05 05:24:13;;;;;;;;;;;;;;;20.56;43.40;103338.44;5057936;28;1870;-63
2023/02/05 05:26:42;;;;;;;;;;;;;;;20.55;43.41;103334.00;5053982;28;2834;-63
2023/02/05 05:29:09;;;;;;;;;;;;;;;20.56;43.40;103344.19;5053362;28;2876;-63
2023/02/05 05:31:35;;;;;;;;;;;;;;;20.54;43.49;103344.00;5049268;28;2615;-63
2023/02/05 05:34:02;;;;;;;;;;;;;;;20.53;43.56;103346.13;5056100;28;2337;-63
2023/02/05 05:36:29;;;;;;;;;;;;;;;20.52;43.56;103347.47;5057245;28;2477;-63
2023/02/05 05:43:45;;;;;;;;;;;;;;;20.55;43.40;103359.91;5053335;28;2891;-63
2023/02/05 05:44:26;;;;;;;;;;;;;;;20.55;43.43;103359.91;5052691;28;2823;-63
2023/02/05 05:46:53;;;;;;;;;;;;;;;20.55;43.33;103365.66;5054867;28;2822;-63
2023/02/05 05:49:19;;;;;;;;;;;;;;;20.53;43.26;103356.88;5051647;28;3346;-63
2023/02/05 05:51:45;;;;;;;;;;;;;;;20.51;43.22;103343.84;5056710;28;2370;-63
2023/02/05 05:54:12;;;;;;;;;;;;;;;20.53;43.30;103345.38;5051548;28;2887;-64
2023/02/05 05:56:38;;;;;;;;;;;;;;;20.54;43.18;103347.63;5055781;28;2943;-63
2023/02/05 05:59:04;;;;;;;;;;;;;;;20.52;43.25;103344.59;5051775;28;2852;-63
2023/02/05 06:01:31;;;;;;;;;;;;;;;20.50;43.08;103339.44;5054527;28;2659;-64
2023/02/05 06:03:57;;;;;;;;;;;;;;;20.50;43.33;103342.31;5057163;28;2717;-63
2023/02/05 06:06:23;;;;;;;;;;;;;;;20.50;43.17;103336.56;5055986;28;2901;-63
2023/02/05 06:08:50;;;;;;;;;;;;;;;20.51;43.31;103329.44;5056227;28;2874;-63
2023/02/05 06:11:16;;;;;;;;;;;;;;;20.51;43.25;103338.06;5051815;28;2931;-63
2023/02/05 06:13:42;;;;;;;;;;;;;;;20.51;43.34;103345.94;5052909;28;2923;-63
2023/02/05 06:16:09;;;;;;;;;;;;;;;20.56;43.30;103344.97;5056079;28;3017;-63
2023/02/05 06:18:35;;;;;;;;;;;;;;;20.56;43.29;103347.06;5051889;28;2943;-63
2023/02/05 06:21:03;;;;;;;;;;;;;;;20.56;43.32;103338.44;5057526;28;2971;-63
2023/02/05 06:23:29;;;;;;;;;;;;;;;20.57;43.33;103334.22;5053139;28;2949;-63
2023/02/05 06:25:56;;;;;;;;;;;;;;;20.57;43.40;103335.00;5051389;28;2926;-63
2023/02/05 06:28:22;;;;;;;;;;;;;;;20.56;43.40;103339.22;5052992;28;2890;-63
2023/02/05 06:30:48;;;;;;;;;;;;;;;20.57;43.08;103339.97;5055931;28;2954;-63
2023/02/05 06:33:15;;;;;;;;;;;;;;;20.55;43.18;103336.88;5052741;28;2903;-63
2023/02/05 06:35:41;;;;;;;;;;;;;;;20.56;43.24;103338.44;5052554;28;3168;-63
2023/02/05 06:38:07;;;;;;;;;;;;;;;20.53;43.31;103339.63;5054508;28;2698;-63
2023/02/05 06:40:34;;;;;;;;;;;;;;;20.53;43.03;103346.13;5058347;28;2838;-63
2023/02/05 06:43:00;;;;;;;;;;;;;;;20.53;43.16;103339.63;5053298;28;3026;-63
2023/02/05 06:45:26;;;;;;;;;;;;;;;20.53;43.06;103342.50;5059258;28;1599;-63
2023/02/05 06:47:54;;;;;;;;;;;;;;;20.51;43.16;103343.84;5053204;28;2908;-63
2023/02/05 06:50:21;;;;;;;;;;;;;;;20.49;43.37;103349.41;5052310;28;3074;-63
2023/02/05 06:52:48;;;;;;;;;;;;;;;20.48;43.37;103356.53;5053059;28;3227;-63
2023/02/05 06:55:15;;;;;;;;;;;;;;;20.49;43.80;103365.94;5054524;28;2887;-63
2023/02/05 06:57:41;;;;;;;;;;;;;;;20.49;43.99;103360.94;5050740;28;2999;-63
2023/02/05 07:00:08;;;;;;;;;;;;;;;20.48;44.28;103350.78;5049002;28;3233;-63
2023/02/05 07:02:34;;;;;;;;;;;;;;;20.53;44.28;103356.88;5051666;28;3028;-63
2023/02/05 07:05:00;;;;;;;;;;;;;;;20.51;44.61;103355.34;5052414;28;2982;-63
2023/02/05 07:07:27;;;;;;;;;;;;;;;20.54;44.70;103346.88;5051376;28;2882;-64
2023/02/05 07:09:53;;;;;;;;;;;;;;;20.51;43.69;103346.72;5056150;28;1711;-64
2023/02/05 07:12:19;;;;;;;;;;;;;;;20.58;44.05;103353.78;5052934;28;2778;-64
2023/02/05 07:14:46;;;;;;;;;;;;;;;20.58;44.43;103353.03;5049225;28;2947;-64
2023/02/05 07:17:12;;;;;;;;;;;;;;;20.36;41.93;103355.47;5051953;28;3164;-63
2023/02/05 07:19:38;;;;;;;;;;;;;;;19.99;38.71;103340.03;5054082;28;3065;-64
2023/02/05 07:22:05;;;;;;;;;;;;;;;13.50;37.30;103342.41;5052483;28;2963;-64
2023/02/05 07:24:31;;;;;;;;;;;;;;;11.47;38.08;103338.50;5049670;28;2926;-66
2023/02/05 07:26:57;;;;;;;;;;;;;;;10.47;38.32;103335.47;5053080;28;2910;-66
2023/02/05 07:29:24;;;;;;;;;;;;;;;11.59;37.46;103339.25;5049311;28;2699;-64
2023/02/05 07:31:50;;;;;;;;;;;;;;;15.47;34.57;103324.69;5052310;28;3022;-65
2023/02/05 07:34:17;;;;;;;;;;;;;;;17.21;32.93;103326.53;5057500;28;2161;-64
2023/02/05 07:36:43;;;;;;;;;;;;;;;17.99;33.05;103324.09;5052870;28;2852;-63
2023/02/05 07:39:09;;;;;;;;;;;;;;;18.42;34.08;103322.41;5051952;28;3030;-63
2023/02/05 07:41:36;;;;;;;;;;;;;;;18.75;33.98;103318.91;5047799;28;3254;-64
2023/02/05 07:44:03;;;;;;;;;;;;;;;18.92;34.80;103315.44;5051747;28;2853;-62
2023/02/05 07:46:30;;;;;;;;;;;;;;;18.98;36.53;103316.75;5042017;28;2830;-62
2023/02/05 07:48:56;;;;;;;;;;;;;;;19.08;36.49;103325.56;5051357;28;2778;-59
2023/02/05 07:51:22;;;;;;;;;;;;;;;19.22;37.07;103323.97;5045486;28;3503;-62
2023/02/05 07:53:49;;;;;;;;;;;;;;;19.33;37.02;103327.75;5045092;28;3423;-63
2023/02/05 07:56:15;;;;;;;;;;;;;;;19.46;38.84;103330.38;5044866;28;3369;-64
2023/02/05 07:58:42;;;;;;;;;;;;;;;19.52;39.11;103319.41;5042318;28;2959;-63
2023/02/05 08:01:08;;;;;;;;;;;;;;;19.53;39.36;103311.56;5050638;28;4333;-62
2023/02/05 08:03:34;;;;;;;;;;;;;;;19.58;39.76;103313.44;5048175;28;3056;-62
2023/02/05 08:06:04;;;;;;;;;;;;;;;19.61;39.84;103324.53;5049526;28;3405;-62
2023/02/05 08:08:30;;;;;;;;;;;;;;;19.64;40.12;103317.63;5047903;28;3018;-63
2023/02/05 08:10:57;;;;;;;;;;;;;;;19.67;40.15;103302.06;5048681;28;3043;-62
2023/02/05 08:13:24;;;;;;;;;;;;;;;19.72;40.45;103300.34;5048425;28;3038;-61
2023/02/05 08:15:50;;;;;;;;;;;;;;;19.74;40.64;103291.13;5049724;28;2126;-63
2023/02/05 08:18:16;;;;;;;;;;;;;;;19.74;40.56;103286.13;5054748;28;2638;-63
2023/02/05 08:20:43;;;;;;;;;;;;;;;19.78;40.82;103295.13;5046618;28;2995;-62
2023/02/05 08:23:09;;;;;;;;;;;;;;;19.82;41.10;103294.72;5052150;28;3192;-62
2023/02/05 08:25:36;;;;;;;;;;;;;;;19.84;41.29;103294.91;5048149;28;2887;-63
2023/02/05 08:28:03;;;;;;;;;;;;;;;19.87;41.14;103294.50;5053641;28;2530;-65
2023/02/05 08:30:29;;;;;;;;;;;;;;;19.94;40.88;103292.91;5047036;28;3269;-65
2023/02/05 08:32:55;;;;;;;;;;;;;;;19.99;41.31;103294.78;5048682;28;3124;-66
2023/02/05 08:35:22;;;;;;;;;;;;;;;20.02;41.33;103298.59;5050705;28;2919;-63
2023/02/05 08:37:48;;;;;;;;;;;;;;;19.99;41.62;103300.53;5048921;28;2860;-64
2023/02/05 08:40:15;;;;;;;;;;;;;;;20.08;41.30;103302.75;5049126;28;2928;-63
2023/02/05 08:42:41;;;;;;;;;;;;;;;19.74;40.39;103294.00;5045755;28;2936;-59
2023/02/05 08:45:07;;;;;;;;;;;;;;;19.81;40.27;103301.81;5050958;28;3085;-60
2023/02/05 08:47:34;;;;;;;;;;;;;;;19.85;39.70;103302.19;5053364;28;2782;-60
2023/02/05 08:50:04;;;;;;;;;;;;;;;19.85;39.81;103294.31;5056858;28;2610;-60
2023/02/05 08:52:30;;;;;;;;;;;;;;;19.91;40.04;103296.22;5060660;28;1792;-60
2023/02/05 08:54:57;;;;;;;;;;;;;;;19.93;40.67;103297.16;5055064;28;1859;-60
2023/02/05 08:57:27;;;;;;;;;;;;;;;19.95;40.94;103285.81;5055940;28;2770;-60
2023/02/05 08:59:54;;;;;;;;;;;;;;;19.95;41.03;103288.69;5056488;28;2906;-60
2023/02/05 09:02:20;;;;;;;;;;;;;;;19.96;40.93;103293.09;5057847;28;1645;-60
2023/02/05 09:04:47;;;;;;;;;;;;;;;19.98;41.13;103290.38;5058321;28;2842;-60
2023/02/05 09:07:15;;;;;;;;;;;;;;;20.00;41.20;103287.69;5050817;28;2088;-60
2023/02/05 09:09:41;;;;;;;;;;;;;;;20.03;41.07;103294.38;5057958;28;2659;-60
2023/02/05 09:12:09;;;;;;;;;;;;;;;20.05;41.34;103298.19;5054114;28;2802;-60
2023/02/05 09:14:36;;;;;;;;;;;;;;;20.06;41.25;103298.94;5054652;28;2807;-60
2023/02/05 09:17:03;;;;;;;;;;;;;;;20.06;41.30;103296.81;5056853;28;3019;-60
2023/02/05 09:19:32;;;;;;;;;;;;;;;20.08;41.27;103291.25;5058652;28;2790;-60
2023/02/05 09:21:58;;;;;;;;;;;;;;;20.09;41.27;103292.78;5062190;28;2336;-60
2023/02/05 09:24:24;;;;;;;;;;;;;;;20.11;41.41;103294.31;5055605;28;1702;-60
2023/02/05 09:26:51;;;;;;;;;;;;;;;20.11;41.26;103303.69;5058826;28;2782;-60
2023/02/05 09:29:17;;;;;;;;;;;;;;;20.12;41.42;103295.84;5057918;28;2746;-60
2023/02/05 09:31:43;;;;;;;;;;;;;;;20.11;41.39;103300.06;5051317;28;2150;-60
2023/02/05 09:34:10;;;;;;;;;;;;;;;20.11;41.31;103300.81;5057564;28;2660;-60
2023/02/05 09:36:36;;;;;;;;;;;;;;;20.08;41.46;103294.13;5060807;28;2852;-60
2023/02/05 09:39:03;;;;;;;;;;;;;;;20.08;41.45;103302.75;5058939;28;2560;-60
2023/02/05 09:41:49;;;;;;;;;;;;;;;20.09;41.61;103304.31;5063074;28;2754;-60
2023/02/05 09:44:19;;;;;;;;;;;;;;;20.09;41.45;103301.41;5056082;28;2552;-60
2023/02/05 09:47:00;;;;;;;;;;;;;;;20.11;41.51;103306.56;5056419;28;2760;-60
2023/02/05 09:49:45;;;;;;;;;;;;;;;20.12;41.49;103307.34;5056496;28;2243;-60
2023/02/05 09:52:19;;;;;;;;;;;;;;;20.13;41.55;103303.13;5057041;28;1758;-60
2023/02/05 09:54:47;;;;;;;;;;;;;;;20.14;41.47;103293.16;5056714;28;1621;-60
2023/02/05 09:57:17;;;;;;;;;;;;;;;20.13;41.46;103291.59;5056491;28;2854;-60
2023/02/05 09:59:44;;;;;;;;;;;;;;;20.15;41.50;103294.66;5059608;28;1981;-60
2023/02/05 10:02:20;;;;;;;;;;;;;;;20.16;41.54;103290.41;5055622;28;2698;-60
2023/02/05 10:04:49;;;;;;;;;;;;;;;20.16;41.67;103296.16;5060133;28;1752;-60
2023/02/05 10:07:16;;;;;;;;;;;;;;;20.17;41.61;103280.44;5058540;28;1691;-60
2023/02/05 10:09:47;;;;;;;;;;;;;;;20.17;41.65;103280.44;5058290;28;1695;-60
2023/02/05 10:12:20;;;;;;;;;;;;;;;20.16;41.74;103278.91;5057238;28;2757;-60
2023/02/05 10:15:05;;;;;;;;;;;;;;;20.16;41.71;103278.91;5056841;28;2798;-60
2023/02/05 10:17:51;;;;;;;;;;;;;;;20.15;41.59;103278.16;5058624;28;1871;-60
2023/02/05 10:20:27;;;;;;;;;;;;;;;20.16;41.63;103276.03;5056953;28;1789;-60
2023/02/05 10:23:24;;;;;;;;;;;;;;;20.17;41.77;103263.19;5055366;28;2754;-60
2023/02/05 10:25:50;;;;;;;;;;;;;;;20.17;41.79;103274.69;5054625;28;2768;-60
2023/02/05 10:28:27;;;;;;;;;;;;;;;20.17;41.68;103263.94;5057231;28;2282;-60
2023/02/05 10:31:00;;;;;;;;;;;;;;;20.17;41.73;103263.19;5056899;28;2703;-60
2023/02/05 10:33:39;;;;;;;;;;;;;;;20.18;41.78;103253.97;5055502;28;2411;-60
2023/02/05 10:36:05;;;;;;;;;;;;;;;20.18;41.60;103241.69;5056287;28;2536;-60
2023/02/05 10:38:32;;;;;;;;;;;;;;;20.20;41.68;103241.88;5054780;28;1969;-60
2023/02/05 10:41:17;;;;;;;;;;;;;;;20.20;41.65;103247.63;5057106;28;2854;-60
2023/02/05 10:44:10;;;;;;;;;;;;;;;20.22;41.65;103239.16;5053834;28;2332;-60
2023/02/05 10:46:36;;;;;;;;;;;;;;;20.22;41.87;103239.91;5052623;28;2822;-60
2023/02/05 10:49:14;;;;;;;;;;;;;;;20.24;41.86;103233.59;5057745;28;1574;-60
2023/02/05 10:51:41;;;;;;;;;;;;;;;20.24;41.73;103230.69;5055367;28;2757;-60
2023/02/05 10:54:21;;;;;;;;;;;;;;;20.26;41.85;103219.38;5055529;28;2762;-60
2023/02/05 10:56:47;;;;;;;;;;;;;;;20.29;41.89;103223.94;5051379;28;2784;-60
2023/02/05 10:59:17;;;;;;;;;;;;;;;20.28;41.79;103222.41;5056660;28;1918;-61
2023/02/05 11:01:43;;;;;;;;;;;;;;;20.28;41.92;103222.41;5056026;28;2770;-60
2023/02/05 11:04:18;;;;;;;;;;;;;;;20.27;41.95;103212.25;5054310;28;1588;-61
2023/02/05 11:06:46;;;;;;;;;;;;;;;20.25;41.95;103212.84;5054506;28;2786;-60
2023/02/05 11:09:24;;;;;;;;;;;;;;;20.25;41.86;103212.84;5052239;28;2676;-60
2023/02/05 11:11:51;;;;;;;;;;;;;;;20.25;42.01;103223.63;5054231;28;2802;-60
2023/02/05 11:14:23;;;;;;;;;;;;;;;20.24;41.98;103219.19;5057294;28;1657;-60
2023/02/05 11:16:50;;;;;;;;;;;;;;;20.24;41.98;103227.81;5055824;28;1502;-60
2023/02/05 11:19:24;;;;;;;;;;;;;;;20.23;41.90;103229.19;5050932;28;2809;-60
2023/02/05 11:21:54;;;;;;;;;;;;;;;20.22;42.00;103237.03;5055302;28;1717;-60
2023/02/05 11:24:35;;;;;;;;;;;;;;;20.23;41.95;103234.94;5054598;28;1623;-60
2023/02/05 11:27:09;;;;;;;;;;;;;;;20.23;41.87;103232.06;5053033;28;2747;-60
2023/02/05 11:29:36;;;;;;;;;;;;;;;20.23;41.97;103226.31;5053062;28;2770;-60
2023/02/05 11:32:02;;;;;;;;;;;;;;;20.24;41.84;103230.69;5054931;28;2580;-60
2023/02/05 11:34:28;;;;;;;;;;;;;;;20.25;41.97;103223.63;5056628;28;2392;-60
2023/02/05 11:36:55;;;;;;;;;;;;;;;20.26;41.95;103225.13;5051799;28;1709;-61
2023/02/05 11:39:27;;;;;;;;;;;;;;;20.27;41.86;103226.63;5050511;28;2847;-60
2023/02/05 11:41:55;;;;;;;;;;;;;;;20.32;41.79;103234.28;5050293;28;2734;-60
2023/02/05 11:44:25;;;;;;;;;;;;;;;20.33;41.85;103220.66;5056798;28;1699;-60
2023/02/05 11:46:55;;;;;;;;;;;;;;;20.34;42.02;103217.19;5054356;28;2671;-60
2023/02/05 11:49:23;;;;;;;;;;;;;;;20.35;41.97;103223.69;5046546;28;3206;-60
2023/02/05 11:51:51;;;;;;;;;;;;;;;20.35;41.89;103223.69;5053455;28;1618;-60
2023/02/05 11:54:19;;;;;;;;;;;;;;;20.37;42.05;103218.88;5052437;28;1597;-60
2023/02/05 11:56:58;;;;;;;;;;;;;;;20.36;42.09;103225.97;5052821;28;2919;-59
2023/02/05 11:59:24;;;;;;;;;;;;;;;20.36;42.29;103228.84;5055399;28;2853;-60
2023/02/05 12:01:51;;;;;;;;;;;;;;;20.37;42.38;103236.13;5057104;28;2774;-60
2023/02/05 12:04:18;;;;;;;;;;;;;;;20.38;42.49;103243.41;5050732;28;3316;-60
2023/02/05 12:06:49;;;;;;;;;;;;;;;20.36;42.62;103228.84;5051295;28;2746;-60
2023/02/05 12:09:19;;;;;;;;;;;;;;;20.37;42.71;103218.88;5053453;28;2799;-60
2023/02/05 12:12:05;;;;;;;;;;;;;;;20.37;42.68;103216.00;5051425;28;2896;-60
2023/02/05 12:14:35;;;;;;;;;;;;;;;20.37;43.24;103201.59;5055370;28;1669;-60
2023/02/05 12:17:06;;;;;;;;;;;;;;;20.37;43.25;103218.88;5052672;28;3143;-60
2023/02/05 12:19:33;;;;;;;;;;;;;;;20.38;43.03;103231.88;5054482;28;1949;-60
2023/02/05 12:22:01;;;;;;;;;;;;;;;20.38;43.21;103220.38;5053968;28;2813;-60
2023/02/05 12:24:33;;;;;;;;;;;;;;;20.39;43.48;103221.91;5055960;28;1783;-60
2023/02/05 12:27:09;;;;;;;;;;;;;;;20.41;43.76;103215.56;5054034;28;2866;-60
2023/02/05 12:29:51;;;;;;;;;;;;;;;20.41;43.58;103213.47;5056583;28;1613;-59
2023/02/05 12:32:50;;;;;;;;;;;;;;;20.43;43.64;103207.88;5052929;28;2774;-60
2023/02/05 12:35:16;;;;;;;;;;;;;;;20.44;43.92;103206.50;5013746;28;1634;-60
2023/02/05 12:37:45;;;;;;;;;;;;;;;20.45;43.99;103210.91;5052011;28;1776;-60
2023/02/05 12:40:34;;;;;;;;;;;;;;;20.42;44.02;103203.47;5056038;28;1988;-60
2023/02/05 12:43:14;;;;;;;;;;;;;;;20.47;43.60;103213.94;5048873;28;2779;-59
2023/02/05 12:45:59;;;;;;;;;;;;;;;20.46;43.72;103198.03;5055412;28;1860;-59
2023/02/05 12:48:47;;;;;;;;;;;;;;;20.47;43.96;103213.19;5056902;28;1638;-59
2023/02/05 12:51:29;;;;;;;;;;;;;;;20.47;44.01;103211.06;5051288;28;2861;-59
2023/02/05 12:53:59;;;;;;;;;;;;;;;20.48;44.20;103212.59;5051586;28;2909;-60
2023/02/05 12:56:41;;;;;;;;;;;;;;;20.47;44.01;103219.72;5053536;28;2881;-60
2023/02/05 12:59:12;;;;;;;;;;;;;;;20.45;44.32;103224.53;5054249;28;1910;-60
2023/02/05 13:01:40;;;;;;;;;;;;;;;20.46;44.00;103231.84;5053953;28;1567;-60
2023/02/05 13:04:08;;;;;;;;;;;;;;;20.46;44.06;103229.72;5052642;28;2988;-60
2023/02/05 13:06:36;;;;;;;;;;;;;;;20.46;44.32;103235.47;5053189;28;2773;-59